Accueil
METAR-TAF:

METAR-TAF

Aéroports :

Asheboro Regional Airport

Asheboro, Caroline du Nord, États-Unis

latitude: 35-39-14N, longitude: 079-53-42W, altitude: 205 m

Observation

Le bulletin a été fait il y a 29 minutes, à 22:55 UTC
Vent 3 kt de ouest
Température 30°C
Humidité 46%
Pression 1011 hPa
Visibilité: 16.1 km
Ciel clair

METAR: KHBI 112255Z AUTO 27003KT 10SM CLR 30/17 A2985 RMK AO2 T03030172

Heure: 19:24 (23:24 UTC)


TAF: absent

Observations et prévisions météorologiques de plus de 4000 aéroports (messages METAR et TAF).

Les stations disponibles sont représentées par des disques jaunes et rouges sur la carte.

Passer la souris dessus pour voir le nom de la station.

Cliquer dessus pour voir les observations et prévisions météorologiques.

Pour changer de carte: cliquez sur les boutons verts avec une croix noire pour zoomer, sur le bouton vert avec un tiret pour effectuer un zoom arrière, ou sur les flèches vertes pour les cartes adjacentes.


METAR-TAF: